Time;durP1;ratioP1;P1;durP2;ratioP2;P2;SDS_P1;SDS_P2;PMS_P1;PMS_P2;Temp;Humidity;BMP_temperature;BMP_pressure;BME280_temperature;BME280_humidity;BME280_pressure;Samples;Min_cycle;Max_cycle;Signal;HPM_P1;HPM_P2
2024/04/11 00:01:53;;;;;;;0.80;0.55;;;;;;;;;;5427132;26;20053;-79
2024/04/11 00:04:19;;;;;;;0.63;0.63;;;;;;;;;;5414228;26;20394;-78
2024/04/11 00:06:45;;;;;;;0.77;0.55;;;;;;;;;;5437997;26;20081;-79
2024/04/11 00:09:11;;;;;;;0.65;0.60;;;;;;;;;;5393051;26;20014;-79
2024/04/11 00:11:37;;;;;;;0.77;0.70;;;;;;;;;;5424059;26;20060;-80
2024/04/11 00:14:03;;;;;;;0.60;0.60;;;;;;;;;;5417416;26;20006;-80
2024/04/11 00:16:29;;;;;;;0.60;0.60;;;;;;;;;;5395358;26;20453;-79
2024/04/11 00:18:55;;;;;;;1.70;0.95;;;;;;;;;;5437385;26;20042;-79
2024/04/11 00:21:23;;;;;;;1.27;0.80;;;;;;;;;;5435271;26;20004;-78
2024/04/11 00:23:50;;;;;;;0.65;0.60;;;;;;;;;;5419790;26;20098;-78
2024/04/11 00:26:17;;;;;;;0.80;0.80;;;;;;;;;;5392750;26;19995;-78
2024/04/11 00:28:43;;;;;;;0.77;0.77;;;;;;;;;;5443537;26;20000;-78
2024/04/11 00:31:09;;;;;;;0.90;0.90;;;;;;;;;;5434703;26;20396;-78
2024/04/11 00:33:37;;;;;;;1.15;1.08;;;;;;;;;;5434113;26;20285;-78
2024/04/11 00:36:05;;;;;;;1.00;0.88;;;;;;;;;;5418842;26;19999;-78
2024/04/11 00:38:33;;;;;;;0.70;0.70;;;;;;;;;;5420294;26;19992;-79
2024/04/11 00:41:00;;;;;;;0.73;0.70;;;;;;;;;;5440264;26;20003;-79
2024/04/11 00:43:32;;;;;;;1.73;0.98;;;;;;;;;;5441061;26;20003;-79
2024/04/11 00:45:59;;;;;;;1.15;0.60;;;;;;;;;;5420146;26;20361;-77
2024/04/11 00:48:26;;;;;;;1.48;0.68;;;;;;;;;;5459403;26;20082;-79
2024/04/11 00:50:52;;;;;;;0.70;0.70;;;;;;;;;;5448610;26;20015;-79
2024/04/11 00:53:20;;;;;;;0.90;0.60;;;;;;;;;;5425500;26;20028;-78
2024/04/11 00:55:46;;;;;;;0.70;0.70;;;;;;;;;;5434035;26;20477;-78
2024/04/11 00:58:12;;;;;;;0.70;0.70;;;;;;;;;;5405893;26;20025;-77
2024/04/11 01:00:42;;;;;;;0.60;0.57;;;;;;;;;;5407888;26;19998;-78
2024/04/11 01:03:08;;;;;;;0.40;0.32;;;;;;;;;;5388886;26;20028;-78
2024/04/11 01:05:34;;;;;;;0.50;0.50;;;;;;;;;;5430950;26;20044;-78
2024/04/11 01:08:07;;;;;;;0.45;0.40;;;;;;;;;;5439506;26;19996;-78
2024/04/11 01:10:33;;;;;;;0.35;0.35;;;;;;;;;;5446339;26;19995;-77
2024/04/11 01:13:01;;;;;;;0.55;0.43;;;;;;;;;;5425413;26;20035;-78
2024/04/11 01:15:27;;;;;;;0.60;0.60;;;;;;;;;;5393897;26;19994;-78
2024/04/11 01:17:53;;;;;;;0.40;0.40;;;;;;;;;;5425335;26;20006;-77
2024/04/11 01:20:21;;;;;;;0.47;0.47;;;;;;;;;;5401409;26;20010;-78
2024/04/11 01:22:48;;;;;;;0.60;0.60;;;;;;;;;;5414118;26;20445;-78
2024/04/11 01:25:15;;;;;;;0.30;0.30;;;;;;;;;;5439081;26;20362;-77
2024/04/11 01:27:41;;;;;;;0.40;0.40;;;;;;;;;;5428106;26;20443;-78
2024/04/11 01:30:08;;;;;;;0.43;0.43;;;;;;;;;;5437638;26;20006;-78
2024/04/11 01:32:34;;;;;;;0.50;0.50;;;;;;;;;;5433595;26;20003;-76
2024/04/11 01:35:00;;;;;;;0.40;0.40;;;;;;;;;;5432589;26;20006;-78
2024/04/11 01:37:26;;;;;;;0.40;0.40;;;;;;;;;;5426346;26;20002;-78
2024/04/11 01:39:53;;;;;;;0.60;0.60;;;;;;;;;;5397534;26;20252;-77
2024/04/11 01:42:19;;;;;;;0.60;0.60;;;;;;;;;;5441469;26;20003;-78
2024/04/11 01:44:46;;;;;;;0.77;0.77;;;;;;;;;;5434592;26;19998;-78
2024/04/11 01:47:15;;;;;;;1.58;1.10;;;;;;;;;;5421594;26;20011;-78
2024/04/11 01:49:41;;;;;;;1.98;1.02;;;;;;;;;;5419055;26;20006;-77
2024/04/11 01:52:09;;;;;;;2.55;1.25;;;;;;;;;;5435475;26;20034;-77
2024/04/11 01:54:44;;;;;;;1.50;1.40;;;;;;;;;;5412940;26;20001;-77
2024/04/11 01:57:10;;;;;;;2.83;1.83;;;;;;;;;;5404410;26;20003;-77
2024/04/11 01:59:37;;;;;;;3.50;2.10;;;;;;;;;;5398356;26;19996;-78
2024/04/11 02:02:03;;;;;;;4.25;2.53;;;;;;;;;;5402101;26;19999;-78
2024/04/11 02:04:30;;;;;;;3.30;2.15;;;;;;;;;;5401881;26;20031;-77
2024/04/11 02:07:04;;;;;;;3.05;2.20;;;;;;;;;;5401551;26;20014;-78
2024/04/11 02:09:31;;;;;;;3.42;1.95;;;;;;;;;;5405398;26;20011;-78
2024/04/11 02:11:57;;;;;;;2.90;2.55;;;;;;;;;;5444145;26;19995;-78
2024/04/11 02:14:23;;;;;;;2.95;2.05;;;;;;;;;;5440067;26;20330;-78
2024/04/11 02:16:50;;;;;;;2.78;2.03;;;;;;;;;;5426010;26;20007;-78
2024/04/11 02:19:16;;;;;;;3.47;2.25;;;;;;;;;;5432492;26;20346;-77
2024/04/11 02:21:43;;;;;;;2.17;1.70;;;;;;;;;;5386160;26;20007;-77
2024/04/11 02:24:18;;;;;;;2.25;1.80;;;;;;;;;;5435083;26;20011;-78
2024/04/11 02:26:49;;;;;;;2.95;1.35;;;;;;;;;;5427597;26;20003;-78
2024/04/11 02:29:16;;;;;;;2.35;1.70;;;;;;;;;;5437514;26;20044;-78
2024/04/11 02:31:43;;;;;;;1.70;1.27;;;;;;;;;;5428109;26;20450;-78
2024/04/11 02:34:09;;;;;;;1.20;1.20;;;;;;;;;;5388665;26;20059;-77
2024/04/11 02:36:35;;;;;;;1.90;1.60;;;;;;;;;;5438585;26;20595;-78
2024/04/11 02:39:04;;;;;;;1.83;1.27;;;;;;;;;;5453593;26;19999;-77
2024/04/11 02:41:31;;;;;;;1.77;1.50;;;;;;;;;;5410819;26;20477;-78
2024/04/11 02:43:58;;;;;;;2.10;1.75;;;;;;;;;;5432952;26;20018;-77
2024/04/11 02:46:25;;;;;;;2.65;1.75;;;;;;;;;;5444426;26;19998;-78
2024/04/11 02:48:51;;;;;;;1.83;1.73;;;;;;;;;;5450209;26;20003;-78
2024/04/11 02:51:22;;;;;;;3.20;1.95;;;;;;;;;;5429676;26;20000;-77
2024/04/11 02:53:49;;;;;;;1.58;1.45;;;;;;;;;;5400504;26;19999;-77
2024/04/11 02:56:16;;;;;;;1.40;1.30;;;;;;;;;;5389672;26;19999;-77
2024/04/11 02:58:43;;;;;;;2.70;1.40;;;;;;;;;;5401346;26;20001;-78
2024/04/11 03:01:10;;;;;;;1.17;1.17;;;;;;;;;;5403919;26;20499;-78
2024/04/11 03:03:39;;;;;;;1.50;1.35;;;;;;;;;;5445366;26;20010;-79
2024/04/11 03:06:06;;;;;;;1.42;1.30;;;;;;;;;;5452153;26;20461;-79
2024/04/11 03:08:33;;;;;;;2.05;1.35;;;;;;;;;;5437619;26;20013;-78
2024/04/11 03:11:01;;;;;;;1.30;1.20;;;;;;;;;;5434475;26;20003;-78
2024/04/11 03:13:27;;;;;;;0.80;0.80;;;;;;;;;;5401946;26;20018;-78
2024/04/11 03:16:00;;;;;;;1.23;1.13;;;;;;;;;;5398792;26;20022;-78
2024/04/11 03:18:27;;;;;;;1.05;0.95;;;;;;;;;;5423892;26;20027;-76
2024/04/11 03:20:57;;;;;;;0.93;0.88;;;;;;;;;;5425391;26;20011;-77
2024/04/11 03:23:23;;;;;;;0.90;0.90;;;;;;;;;;5424071;26;20035;-78
2024/04/11 03:25:50;;;;;;;1.17;1.00;;;;;;;;;;5436929;26;19999;-79
2024/04/11 03:28:16;;;;;;;1.00;1.00;;;;;;;;;;5434801;26;20310;-78
2024/04/11 03:30:52;;;;;;;1.15;1.05;;;;;;;;;;5392169;26;19995;-78
2024/04/11 03:33:18;;;;;;;1.27;1.15;;;;;;;;;;5458397;26;20038;-77
2024/04/11 03:36:05;;;;;;;1.17;1.05;;;;;;;;;;5462935;26;20490;-77
2024/04/11 03:38:32;;;;;;;1.48;1.38;;;;;;;;;;5438414;26;20007;-77
2024/04/11 03:40:59;;;;;;;1.40;1.30;;;;;;;;;;5402913;26;20014;-78
2024/04/11 03:43:28;;;;;;;1.45;1.35;;;;;;;;;;5365737;26;20443;-77
2024/04/11 03:46:05;;;;;;;1.30;1.20;;;;;;;;;;5412618;26;20003;-77
2024/04/11 03:48:31;;;;;;;1.38;0.90;;;;;;;;;;5410406;26;20002;-78
2024/04/11 03:50:57;;;;;;;1.48;1.35;;;;;;;;;;5437936;26;20012;-78
2024/04/11 03:53:23;;;;;;;1.10;1.00;;;;;;;;;;5392469;26;19995;-78
2024/04/11 03:55:50;;;;;;;1.20;0.82;;;;;;;;;;5443296;26;20000;-77
2024/04/11 03:58:16;;;;;;;1.23;1.13;;;;;;;;;;5406497;26;19999;-78
2024/04/11 04:00:45;;;;;;;0.77;0.77;;;;;;;;;;5456122;26;20412;-78
2024/04/11 04:03:12;;;;;;;1.92;0.98;;;;;;;;;;5426140;26;20316;-78
2024/04/11 04:05:39;;;;;;;1.38;1.27;;;;;;;;;;5446070;26;20007;-78
2024/04/11 04:08:05;;;;;;;1.58;1.48;;;;;;;;;;5434661;26;19995;-78
2024/04/11 04:10:31;;;;;;;2.05;1.88;;;;;;;;;;5432941;26;19996;-77
2024/04/11 04:13:01;;;;;;;1.70;1.60;;;;;;;;;;5439813;26;20011;-77
2024/04/11 04:15:28;;;;;;;1.40;1.30;;;;;;;;;;5405895;26;20011;-75
2024/04/11 04:17:57;;;;;;;1.42;1.33;;;;;;;;;;5433457;26;19999;-78
2024/04/11 04:20:23;;;;;;;1.35;1.25;;;;;;;;;;5389609;26;20053;-76
2024/04/11 04:22:49;;;;;;;1.10;1.00;;;;;;;;;;5387160;26;20482;-79
2024/04/11 04:25:16;;;;;;;1.08;0.98;;;;;;;;;;5421268;26;20080;-78
2024/04/11 04:27:44;;;;;;;1.50;1.40;;;;;;;;;;5429631;26;20370;-77
2024/04/11 04:30:12;;;;;;;1.17;1.08;;;;;;;;;;5440883;26;20010;-77
2024/04/11 04:32:38;;;;;;;0.93;0.85;;;;;;;;;;5446322;26;20337;-78
2024/04/11 04:35:09;;;;;;;0.73;0.73;;;;;;;;;;5443800;26;20014;-78
2024/04/11 04:37:39;;;;;;;0.70;0.70;;;;;;;;;;5443575;26;20010;-77
2024/04/11 04:40:06;;;;;;;0.82;0.82;;;;;;;;;;5425775;26;20037;-78
2024/04/11 04:42:32;;;;;;;0.80;0.80;;;;;;;;;;5428590;26;20486;-78
2024/04/11 04:44:58;;;;;;;0.90;0.90;;;;;;;;;;5421009;26;20060;-76
2024/04/11 04:47:34;;;;;;;0.70;0.70;;;;;;;;;;5419384;26;19991;-76
2024/04/11 04:50:00;;;;;;;0.60;0.60;;;;;;;;;;5391332;26;20423;-76
2024/04/11 04:52:27;;;;;;;0.50;0.50;;;;;;;;;;5411522;26;20003;-79
2024/04/11 04:54:54;;;;;;;0.60;0.60;;;;;;;;;;5414201;26;20024;-77
2024/04/11 04:57:21;;;;;;;0.40;0.40;;;;;;;;;;5428509;26;19995;-77
2024/04/11 04:59:47;;;;;;;0.60;0.60;;;;;;;;;;5423073;26;20464;-77
2024/04/11 05:02:13;;;;;;;1.38;0.60;;;;;;;;;;5424891;26;20000;-77
2024/04/11 05:04:40;;;;;;;0.55;0.55;;;;;;;;;;5398234;26;20002;-79
2024/04/11 05:07:09;;;;;;;1.13;0.93;;;;;;;;;;5400787;26;20336;-78
2024/04/11 05:09:36;;;;;;;0.75;0.75;;;;;;;;;;5427118;26;20326;-78
2024/04/11 05:12:04;;;;;;;2.38;1.40;;;;;;;;;;5439392;26;20333;-77
2024/04/11 05:14:32;;;;;;;1.33;1.10;;;;;;;;;;5386560;26;19999;-78
2024/04/11 05:17:01;;;;;;;1.25;1.08;;;;;;;;;;5432398;26;20338;-78
2024/04/11 05:19:27;;;;;;;1.80;1.15;;;;;;;;;;5423905;26;20501;-78
2024/04/11 05:21:53;;;;;;;1.17;1.00;;;;;;;;;;5439560;26;20142;-79
2024/04/11 05:24:20;;;;;;;1.40;1.17;;;;;;;;;;5436666;26;20044;-78
2024/04/11 05:26:50;;;;;;;1.70;1.02;;;;;;;;;;5417536;26;20353;-78
2024/04/11 05:29:16;;;;;;;0.95;0.95;;;;;;;;;;5442927;26;20007;-77
2024/04/11 05:31:43;;;;;;;1.73;1.05;;;;;;;;;;5430140;26;19999;-78
2024/04/11 05:34:13;;;;;;;1.35;0.93;;;;;;;;;;5435914;26;19995;-78
2024/04/11 05:36:41;;;;;;;1.63;1.10;;;;;;;;;;5431912;26;20469;-77
2024/04/11 05:39:09;;;;;;;2.13;1.10;;;;;;;;;;5453125;26;19999;-77
2024/04/11 05:41:35;;;;;;;2.08;1.40;;;;;;;;;;5433906;26;20401;-78
2024/04/11 05:44:01;;;;;;;3.25;2.00;;;;;;;;;;5448325;26;20464;-78
2024/04/11 05:46:30;;;;;;;3.33;2.30;;;;;;;;;;5445063;26;20012;-77
2024/04/11 05:48:57;;;;;;;2.53;2.33;;;;;;;;;;5419922;26;20036;-78
2024/04/11 05:51:23;;;;;;;3.85;2.45;;;;;;;;;;5422530;26;20021;-77
2024/04/11 05:53:49;;;;;;;8.82;3.05;;;;;;;;;;5408677;26;20352;-77
2024/04/11 05:56:16;;;;;;;4.72;2.10;;;;;;;;;;5426719;26;20083;-78
2024/04/11 05:58:43;;;;;;;3.20;2.33;;;;;;;;;;5439913;26;20035;-77
2024/04/11 06:01:09;;;;;;;2.78;2.22;;;;;;;;;;5438147;26;20456;-77
2024/04/11 06:03:46;;;;;;;1.83;1.70;;;;;;;;;;5438644;26;20294;-78
2024/04/11 06:06:13;;;;;;;2.03;1.67;;;;;;;;;;5438098;26;20009;-79
2024/04/11 06:08:45;;;;;;;2.00;1.50;;;;;;;;;;5438977;26;20018;-77
2024/04/11 06:11:12;;;;;;;2.65;1.88;;;;;;;;;;5446844;26;20355;-76
2024/04/11 06:13:38;;;;;;;3.55;2.47;;;;;;;;;;5451117;26;20051;-78
2024/04/11 06:16:05;;;;;;;4.30;2.65;;;;;;;;;;5400887;26;20023;-79
2024/04/11 06:18:34;;;;;;;2.90;2.60;;;;;;;;;;5403114;26;19995;-78
2024/04/11 06:21:02;;;;;;;3.88;2.35;;;;;;;;;;5403192;26;20006;-78
2024/04/11 06:23:29;;;;;;;3.88;2.90;;;;;;;;;;5394725;26;20492;-79
2024/04/11 06:25:57;;;;;;;4.55;2.40;;;;;;;;;;5405063;26;20003;-78
2024/04/11 06:28:24;;;;;;;3.17;2.60;;;;;;;;;;5424758;26;20442;-78
2024/04/11 06:30:51;;;;;;;3.33;2.45;;;;;;;;;;5444554;26;19999;-78
2024/04/11 06:33:18;;;;;;;3.28;2.25;;;;;;;;;;5446330;26;20027;-79
2024/04/11 06:35:47;;;;;;;2.30;1.70;;;;;;;;;;5420007;26;19995;-78
2024/04/11 06:38:14;;;;;;;4.70;2.30;;;;;;;;;;5433912;26;19999;-78
2024/04/11 06:40:40;;;;;;;5.70;3.47;;;;;;;;;;5427795;26;20010;-77
2024/04/11 06:43:08;;;;;;;7.18;3.78;;;;;;;;;;5439368;26;20005;-78
2024/04/11 06:45:34;;;;;;;7.53;4.45;;;;;;;;;;5419939;26;20022;-79
2024/04/11 06:48:00;;;;;;;8.77;4.78;;;;;;;;;;5437490;26;20004;-78
2024/04/11 06:50:27;;;;;;;10.45;5.28;;;;;;;;;;5426474;26;20015;-78
2024/04/11 06:52:53;;;;;;;8.50;4.43;;;;;;;;;;5445737;26;19999;-79
2024/04/11 06:55:19;;;;;;;9.68;4.72;;;;;;;;;;5460632;26;19984;-80
2024/04/11 06:57:46;;;;;;;8.88;4.80;;;;;;;;;;5443667;26;20072;-78
2024/04/11 07:00:25;;;;;;;6.50;4.45;;;;;;;;;;5438903;26;20002;-78
2024/04/11 07:02:54;;;;;;;5.95;3.38;;;;;;;;;;5435908;26;20011;-78
2024/04/11 07:05:20;;;;;;;3.70;3.30;;;;;;;;;;5413078;26;20043;-78
2024/04/11 07:07:54;;;;;;;6.10;4.10;;;;;;;;;;5430069;26;20014;-78
2024/04/11 07:10:26;;;;;;;6.55;3.80;;;;;;;;;;5423908;26;20014;-79
2024/04/11 07:12:59;;;;;;;;;;;;;;;;;;5402970;26;20014;-78
2024/04/11 07:15:29;;;;;;;7.47;3.78;;;;;;;;;;5407861;26;19932;-78
2024/04/11 07:17:58;;;;;;;5.28;3.78;;;;;;;;;;5418672;26;20733;-78
2024/04/11 07:20:31;;;;;;;3.65;3.35;;;;;;;;;;5400212;26;20011;-79
2024/04/11 07:23:04;;;;;;;4.75;2.60;;;;;;;;;;5388105;26;20154;-78
2024/04/11 07:25:32;;;;;;;2.42;2.10;;;;;;;;;;5434632;26;20012;-78
2024/04/11 07:28:00;;;;;;;2.72;1.77;;;;;;;;;;5407498;26;20340;-79
2024/04/11 07:30:29;;;;;;;5.93;2.75;;;;;;;;;;5422848;26;20003;-78
2024/04/11 07:33:01;;;;;;;4.47;2.55;;;;;;;;;;5425711;26;20009;-79
2024/04/11 07:35:30;;;;;;;3.42;2.88;;;;;;;;;;5399087;26;20031;-77
2024/04/11 07:37:59;;;;;;;3.50;2.33;;;;;;;;;;5432350;26;20011;-78
2024/04/11 07:40:32;;;;;;;5.85;1.90;;;;;;;;;;5433283;26;20007;-79
2024/04/11 07:43:06;;;;;;;2.58;1.88;;;;;;;;;;5439211;26;20018;-78
2024/04/11 07:45:35;;;;;;;8.32;2.40;;;;;;;;;;5417917;26;20000;-78
2024/04/11 07:48:04;;;;;;;4.18;1.80;;;;;;;;;;5399411;26;20074;-77
2024/04/11 07:50:30;;;;;;;2.67;1.67;;;;;;;;;;5433554;26;20003;-77
2024/04/11 07:52:57;;;;;;;5.57;2.58;;;;;;;;;;5418691;26;20080;-76
2024/04/11 07:55:23;;;;;;;5.85;2.88;;;;;;;;;;5421180;26;20411;-78
2024/04/11 07:57:51;;;;;;;5.93;2.60;;;;;;;;;;5438187;26;20000;-78
2024/04/11 08:00:23;;;;;;;4.38;2.70;;;;;;;;;;5435200;26;20337;-78
2024/04/11 08:02:56;;;;;;;5.10;2.38;;;;;;;;;;5423009;26;19999;-78
2024/04/11 08:05:22;;;;;;;3.60;2.20;;;;;;;;;;5396744;26;20000;-78
2024/04/11 08:07:51;;;;;;;2.47;1.60;;;;;;;;;;5432696;26;20000;-78
2024/04/11 08:10:20;;;;;;;3.42;2.25;;;;;;;;;;5450155;26;19995;-77
2024/04/11 08:12:46;;;;;;;1.98;1.80;;;;;;;;;;5430710;26;20007;-77
2024/04/11 08:15:14;;;;;;;1.75;1.60;;;;;;;;;;5417936;26;20000;-78
2024/04/11 08:17:42;;;;;;;3.08;2.03;;;;;;;;;;5406838;26;20035;-78
2024/04/11 08:20:12;;;;;;;2.95;1.88;;;;;;;;;;5405450;26;20002;-79
2024/04/11 08:22:42;;;;;;;2.67;2.17;;;;;;;;;;5445511;26;20477;-78
2024/04/11 08:25:14;;;;;;;4.85;3.08;;;;;;;;;;5441489;26;19999;-78
2024/04/11 08:27:40;;;;;;;5.57;2.67;;;;;;;;;;5400153;26;20102;-77
2024/04/11 08:30:06;;;;;;;4.13;2.40;;;;;;;;;;5433180;26;20366;-78
2024/04/11 08:32:33;;;;;;;5.05;2.00;;;;;;;;;;5409941;26;19995;-77
2024/04/11 08:35:02;;;;;;;2.45;2.00;;;;;;;;;;5438397;26;19999;-78
2024/04/11 08:37:29;;;;;;;6.68;3.40;;;;;;;;;;5422955;26;20007;-78
2024/04/11 08:39:55;;;;;;;8.10;5.20;;;;;;;;;;5420237;26;19991;-77
2024/04/11 08:42:22;;;;;;;3.67;3.38;;;;;;;;;;5426246;26;20003;-77
2024/04/11 08:44:50;;;;;;;5.43;3.30;;;;;;;;;;5412748;26;20460;-77
2024/04/11 08:47:16;;;;;;;6.57;4.03;;;;;;;;;;5430066;26;20008;-77
2024/04/11 08:49:43;;;;;;;7.25;3.45;;;;;;;;;;5405249;26;20071;-78
2024/04/11 08:52:12;;;;;;;4.70;2.88;;;;;;;;;;5457791;26;19995;-79
2024/04/11 08:54:41;;;;;;;2.95;2.28;;;;;;;;;;5474321;26;20005;-78
2024/04/11 08:57:12;;;;;;;5.07;3.78;;;;;;;;;;5457625;26;19994;-79
2024/04/11 08:59:39;;;;;;;8.57;4.03;;;;;;;;;;5469010;26;19999;-77
2024/04/11 09:02:06;;;;;;;5.90;2.92;;;;;;;;;;5439975;26;19987;-78
2024/04/11 09:04:32;;;;;;;7.60;3.60;;;;;;;;;;5414815;26;20014;-79
2024/04/11 09:07:00;;;;;;;5.28;3.50;;;;;;;;;;5460647;26;20017;-77
2024/04/11 09:09:27;;;;;;;3.20;2.85;;;;;;;;;;5446521;26;19983;-78
2024/04/11 09:11:53;;;;;;;5.78;2.92;;;;;;;;;;5420956;26;20003;-80
2024/04/11 09:14:20;;;;;;;5.15;2.95;;;;;;;;;;5445886;26;19998;-78
2024/04/11 09:16:47;;;;;;;3.60;2.85;;;;;;;;;;5414682;26;19995;-78
2024/04/11 09:19:13;;;;;;;3.95;2.90;;;;;;;;;;5405496;26;20474;-77
2024/04/11 09:21:45;;;;;;;3.95;2.42;;;;;;;;;;5434420;26;20010;-78
2024/04/11 09:24:16;;;;;;;;;;;;;;;;;;5426684;26;20013;-78
2024/04/11 09:26:43;;;;;;;4.28;2.80;;;;;;;;;;5428039;26;19924;-77
2024/04/11 09:29:11;;;;;;;3.83;2.22;;;;;;;;;;5441172;26;19999;-77
2024/04/11 09:31:42;;;;;;;4.80;2.95;;;;;;;;;;5416095;26;20022;-78
2024/04/11 09:34:12;;;;;;;4.55;2.33;;;;;;;;;;5428704;26;20003;-78
2024/04/11 09:36:44;;;;;;;2.50;2.08;;;;;;;;;;5457931;26;20019;-78
2024/04/11 09:39:12;;;;;;;3.90;2.30;;;;;;;;;;5440875;26;20014;-78
2024/04/11 09:41:40;;;;;;;4.00;3.15;;;;;;;;;;5420127;26;19995;-78
2024/04/11 09:44:07;;;;;;;4.28;2.90;;;;;;;;;;5423923;26;20018;-78
2024/04/11 09:46:41;;;;;;;4.35;2.88;;;;;;;;;;5400085;26;20101;-77
2024/04/11 09:49:18;;;;;;;6.65;3.67;;;;;;;;;;5389718;26;19999;-77
2024/04/11 09:51:45;;;;;;;6.68;4.07;;;;;;;;;;5435109;26;20019;-77
2024/04/11 09:54:13;;;;;;;3.70;2.55;;;;;;;;;;5420018;26;20003;-78
2024/04/11 09:56:42;;;;;;;3.45;1.92;;;;;;;;;;5423159;26;20022;-77
2024/04/11 09:59:09;;;;;;;5.45;3.10;;;;;;;;;;5427905;26;20434;-78
2024/04/11 10:01:38;;;;;;;5.05;2.75;;;;;;;;;;5424221;26;20127;-78
2024/04/11 10:04:21;;;;;;;3.85;2.70;;;;;;;;;;5421894;26;19991;-77
2024/04/11 10:06:52;;;;;;;2.67;1.77;;;;;;;;;;5423547;26;20345;-77
2024/04/11 10:09:18;;;;;;;3.55;1.80;;;;;;;;;;5435368;26;20457;-78
2024/04/11 10:11:46;;;;;;;5.32;2.35;;;;;;;;;;5440339;26;20003;-79
2024/04/11 10:14:20;;;;;;;2.25;1.70;;;;;;;;;;5433956;26;19998;-78
2024/04/11 10:16:48;;;;;;;4.03;3.20;;;;;;;;;;5427505;26;19998;-78
2024/04/11 10:19:22;;;;;;;2.78;2.10;;;;;;;;;;5424183;26;20007;-78
2024/04/11 10:21:49;;;;;;;2.42;1.80;;;;;;;;;;5384448;26;20458;-77
2024/04/11 10:24:16;;;;;;;10.90;4.40;;;;;;;;;;5419224;26;20408;-78
2024/04/11 10:26:50;;;;;;;5.47;3.30;;;;;;;;;;5420680;26;20007;-78
2024/04/11 10:29:20;;;;;;;2.95;2.15;;;;;;;;;;5404850;26;20119;-77
2024/04/11 10:31:58;;;;;;;2.65;2.35;;;;;;;;;;5444738;26;19995;-78
2024/04/11 10:34:37;;;;;;;4.45;3.85;;;;;;;;;;5435597;26;19995;-77
2024/04/11 10:37:12;;;;;;;5.95;2.88;;;;;;;;;;5461871;26;20006;-78
2024/04/11 10:39:39;;;;;;;2.17;1.42;;;;;;;;;;5452176;26;20014;-79
2024/04/11 10:42:13;;;;;;;4.05;2.38;;;;;;;;;;5405771;26;20049;-78
2024/04/11 10:44:40;;;;;;;3.13;2.30;;;;;;;;;;5402366;26;20013;-78
2024/04/11 10:47:13;;;;;;;2.38;1.90;;;;;;;;;;5441111;26;19995;-78
2024/04/11 10:49:45;;;;;;;2.33;1.70;;;;;;;;;;5414170;26;19998;-78
2024/04/11 10:52:11;;;;;;;3.30;2.03;;;;;;;;;;5427596;26;19999;-79
2024/04/11 10:54:48;;;;;;;2.00;1.80;;;;;;;;;;5398632;26;19998;-78
2024/04/11 10:57:15;;;;;;;2.50;1.27;;;;;;;;;;5448427;26;20026;-77
2024/04/11 10:59:51;;;;;;;1.65;1.55;;;;;;;;;;5451233;26;20442;-78
2024/04/11 11:02:23;;;;;;;1.70;1.60;;;;;;;;;;5420558;26;19998;-78
2024/04/11 11:04:54;;;;;;;4.32;1.30;;;;;;;;;;5395082;26;20387;-78
2024/04/11 11:07:23;;;;;;;3.28;1.73;;;;;;;;;;5454695;26;20017;-78
2024/04/11 11:09:53;;;;;;;1.75;1.63;;;;;;;;;;5409893;26;20031;-78
2024/04/11 11:12:23;;;;;;;2.47;1.65;;;;;;;;;;5426104;26;20014;-78
2024/04/11 11:14:53;;;;;;;1.48;1.13;;;;;;;;;;5433044;26;20016;-79
2024/04/11 11:17:19;;;;;;;3.03;2.10;;;;;;;;;;5437225;26;19991;-78
2024/04/11 11:19:49;;;;;;;3.75;2.13;;;;;;;;;;5434183;26;20421;-79
2024/04/11 11:22:18;;;;;;;4.63;2.08;;;;;;;;;;5404625;26;20009;-79
2024/04/11 11:24:47;;;;;;;3.75;1.40;;;;;;;;;;5415696;26;20446;-79
2024/04/11 11:27:13;;;;;;;3.42;2.13;;;;;;;;;;5420136;26;20004;-79
2024/04/11 11:29:42;;;;;;;3.30;2.50;;;;;;;;;;5419119;26;20010;-78
2024/04/11 11:32:43;;;;;;;2.38;2.00;;;;;;;;;;5396624;26;20062;-79
2024/04/11 11:35:05;;;;;;;1.35;1.25;;;;;;;;;;5407928;26;19995;-78
2024/04/11 11:37:32;;;;;;;3.90;2.40;;;;;;;;;;5421019;26;20081;-78
2024/04/11 11:40:32;;;;;;;1.52;1.42;;;;;;;;;;5395851;26;20006;-78
2024/04/11 11:42:44;;;;;;;1.05;0.95;;;;;;;;;;5418885;26;19999;-78
2024/04/11 11:45:10;;;;;;;0.77;0.70;;;;;;;;;;5387323;26;20007;-77
2024/04/11 11:47:45;;;;;;;0.40;0.40;;;;;;;;;;5418415;26;19995;-78
2024/04/11 11:50:22;;;;;;;1.35;1.00;;;;;;;;;;5417299;26;20191;-78
2024/04/11 11:52:49;;;;;;;1.20;1.10;;;;;;;;;;5418013;26;20000;-78
2024/04/11 11:55:18;;;;;;;3.22;1.30;;;;;;;;;;5433837;26;19995;-78
2024/04/11 11:57:54;;;;;;;3.03;1.90;;;;;;;;;;5430752;26;20028;-77
2024/04/11 12:00:26;;;;;;;2.85;1.80;;;;;;;;;;5447956;26;20011;-77
2024/04/11 12:02:56;;;;;;;3.75;2.05;;;;;;;;;;5428747;26;20010;-77
2024/04/11 12:05:23;;;;;;;2.40;1.52;;;;;;;;;;5431027;26;20700;-77
2024/04/11 12:07:52;;;;;;;1.70;1.25;;;;;;;;;;5432158;26;20384;-78
2024/04/11 12:10:19;;;;;;;3.03;1.80;;;;;;;;;;5433717;26;19995;-78
2024/04/11 12:12:48;;;;;;;3.38;2.10;;;;;;;;;;5395127;26;20006;-79
2024/04/11 12:15:16;;;;;;;4.22;2.00;;;;;;;;;;5456228;26;19991;-79
2024/04/11 12:17:43;;;;;;;1.75;1.35;;;;;;;;;;5436290;26;20012;-78
2024/04/11 12:20:15;;;;;;;1.65;1.27;;;;;;;;;;5424462;26;19996;-77
2024/04/11 12:22:41;;;;;;;;;;;;;;;;;;5384951;26;20422;-77
2024/04/11 12:25:10;;;;;;;3.03;1.88;;;;;;;;;;5440353;26;19980;-78
2024/04/11 12:27:39;;;;;;;2.65;1.17;;;;;;;;;;5452373;26;20436;-77
2024/04/11 12:30:07;;;;;;;1.48;1.23;;;;;;;;;;5423582;26;20018;-77
2024/04/11 12:32:41;;;;;;;1.58;1.00;;;;;;;;;;5391992;26;19999;-78
2024/04/11 12:35:08;;;;;;;1.67;1.50;;;;;;;;;;5424419;26;20049;-77
2024/04/11 12:37:36;;;;;;;2.15;1.50;;;;;;;;;;5427487;26;20008;-77
2024/04/11 12:40:06;;;;;;;5.78;2.05;;;;;;;;;;5422438;26;19995;-78
2024/04/11 12:42:33;;;;;;;3.05;2.45;;;;;;;;;;5442119;26;20007;-78
2024/04/11 12:45:07;;;;;;;4.05;2.78;;;;;;;;;;5426429;26;19999;-78
2024/04/11 12:47:39;;;;;;;2.22;1.67;;;;;;;;;;5423816;26;20044;-79
2024/04/11 12:50:05;;;;;;;;;;;;;;;;;;5431703;26;20006;-77
2024/04/11 12:52:31;;;;;;;2.33;1.80;;;;;;;;;;5424990;26;19925;-78
2024/04/11 12:55:01;;;;;;;3.67;1.90;;;;;;;;;;5443306;26;20018;-78
2024/04/11 12:57:30;;;;;;;2.92;1.77;;;;;;;;;;5442945;26;19992;-78
2024/04/11 13:00:05;;;;;;;1.88;1.48;;;;;;;;;;5448796;26;19995;-79
2024/04/11 13:02:34;;;;;;;3.08;1.92;;;;;;;;;;5464175;26;20042;-79
2024/04/11 13:05:05;;;;;;;3.25;1.38;;;;;;;;;;5435694;26;20341;-78
2024/04/11 13:07:32;;;;;;;2.15;1.08;;;;;;;;;;5424344;26;20014;-78
2024/04/11 13:10:07;;;;;;;2.45;0.95;;;;;;;;;;5404533;26;20037;-78
2024/04/11 13:12:43;;;;;;;1.00;0.60;;;;;;;;;;5446539;26;20003;-78
2024/04/11 13:15:11;;;;;;;0.63;0.63;;;;;;;;;;5446688;26;20013;-78
2024/04/11 13:17:41;;;;;;;0.65;0.65;;;;;;;;;;5440787;26;20004;-78
2024/04/11 13:20:15;;;;;;;2.50;1.67;;;;;;;;;;5411717;26;20003;-78
2024/04/11 13:22:41;;;;;;;3.30;1.58;;;;;;;;;;5425931;26;20049;-78
2024/04/11 13:25:17;;;;;;;1.88;1.58;;;;;;;;;;5425351;26;20015;-79
2024/04/11 13:27:43;;;;;;;2.55;1.00;;;;;;;;;;5427961;26;19995;-79
2024/04/11 13:30:13;;;;;;;1.38;0.80;;;;;;;;;;5438958;26;19999;-79
2024/04/11 13:32:48;;;;;;;3.60;1.40;;;;;;;;;;5438371;26;20014;-79
2024/04/11 13:35:36;;;;;;;1.27;1.17;;;;;;;;;;5457678;26;20002;-79
2024/04/11 13:38:12;;;;;;;1.83;1.50;;;;;;;;;;5429168;26;20000;-79
2024/04/11 13:43:05;;;;;;;2.60;1.27;;;;;;;;;;5425642;26;20002;-78
2024/04/11 13:45:40;;;;;;;1.48;1.05;;;;;;;;;;5411077;26;20007;-78
2024/04/11 13:48:07;;;;;;;0.90;0.90;;;;;;;;;;5439864;26;19995;-78
2024/04/11 13:50:54;;;;;;;0.73;0.70;;;;;;;;;;5417052;26;19995;-78
2024/04/11 13:53:21;;;;;;;0.80;0.65;;;;;;;;;;5427351;26;20020;-78
2024/04/11 13:55:53;;;;;;;0.77;0.70;;;;;;;;;;5432108;26;20003;-80
2024/04/11 13:58:21;;;;;;;1.02;0.60;;;;;;;;;;5454294;26;19999;-79
2024/04/11 14:00:50;;;;;;;0.50;0.50;;;;;;;;;;5454552;26;20002;-78
2024/04/11 14:03:23;;;;;;;0.60;0.60;;;;;;;;;;5439255;26;20008;-78
2024/04/11 14:06:27;;;;;;;0.50;0.50;;;;;;;;;;5440165;26;20049;-79
2024/04/11 14:08:53;;;;;;;0.80;0.80;;;;;;;;;;5398215;26;19996;-78
2024/04/11 14:11:29;;;;;;;0.60;0.60;;;;;;;;;;5470342;26;20009;-79
2024/04/11 14:13:55;;;;;;;1.20;0.93;;;;;;;;;;5440145;26;19987;-79
2024/04/11 14:16:51;;;;;;;1.10;0.90;;;;;;;;;;5456337;26;20003;-79
2024/04/11 14:19:19;;;;;;;2.15;1.80;;;;;;;;;;5416057;26;19996;-80
2024/04/11 14:21:53;;;;;;;1.13;0.95;;;;;;;;;;5454086;26;20014;-79
2024/04/11 14:24:58;;;;;;;1.55;1.20;;;;;;;;;;5434709;26;20001;-78
2024/04/11 14:27:11;;;;;;;3.25;1.70;;;;;;;;;;5450136;26;20003;-77
2024/04/11 14:29:37;;;;;;;3.75;1.90;;;;;;;;;;5472652;26;20025;-78
2024/04/11 14:32:06;;;;;;;2.83;2.05;;;;;;;;;;5448258;26;19996;-79
2024/04/11 14:39:50;;;;;;;5.53;3.03;;;;;;;;;;5438463;26;20042;-78
2024/04/11 14:42:26;;;;;;;4.70;2.75;;;;;;;;;;5423709;26;20031;-77
2024/04/11 14:44:53;;;;;;;2.65;1.40;;;;;;;;;;5436113;26;20039;-78
2024/04/11 14:47:19;;;;;;;4.18;2.80;;;;;;;;;;5435643;26;20010;-78
2024/04/11 14:49:49;;;;;;;3.75;2.90;;;;;;;;;;5443247;26;19995;-78
2024/04/11 14:52:19;;;;;;;3.70;2.40;;;;;;;;;;5428388;26;20015;-78
2024/04/11 14:54:52;;;;;;;2.85;1.70;;;;;;;;;;5415578;26;19988;-79
2024/04/11 14:57:24;;;;;;;2.17;1.92;;;;;;;;;;5436264;26;20041;-78
2024/04/11 14:59:58;;;;;;;1.63;1.52;;;;;;;;;;5459126;26;20009;-78
2024/04/11 15:02:27;;;;;;;2.70;2.28;;;;;;;;;;5454798;26;20002;-78